Accueil
METAR-TAF:

METAR-TAF

Aéroports :

Aéroport de Paris-Orly

Paris-Orly, France

latitude: 48-44N, longitude: 002-24E, altitude: 89 m

Observation

Le bulletin a été fait il y a 34 minutes, à 03:30 UTC
Vent 7 kt de nord/nord-est
Température 13°C
Humidité 72%
Pression 1026 hPa
Visibilité 10 km ou plus
pas de nuages en-dessous de 1500 mètres et pas de cumulonimbus.

METAR: LFPO 120330Z 02007KT CAVOK 13/08 Q1026 NOSIG

Heure: 06:04 (04:04 UTC)

Prévision

Le bulletin a été fait il y a 5 heures et 4 minutes, à 23:00 UTC
Prévision valable du 12 à 00 UTC au 13 à 06 UTC
Vent 8 kt de nord/nord-est
Visibilité 10 km ou plus
pas de nuages en-dessous de 1500 mètres et pas de cumulonimbus.

TAF: LFPO 112300Z 1200/1306 03008KT CAVOK

Observations et prévisions météorologiques de plus de 4000 aéroports (messages METAR et TAF).

Les stations disponibles sont représentées par des disques jaunes et rouges sur la carte.

Passer la souris dessus pour voir le nom de la station.

Cliquer dessus pour voir les observations et prévisions météorologiques.

Pour changer de carte: cliquez sur les boutons verts avec une croix noire pour zoomer, sur le bouton vert avec un tiret pour effectuer un zoom arrière, ou sur les flèches vertes pour les cartes adjacentes.


METAR-TAF: